sensor_id;sensor_type;location;lat;lon;timestamp;pressure;altitude;pressure_sealevel;temperature;humidity
79645;BME280;69117;47.148;18.954;2023-09-19T00:00:07;100095.16;;;21.70;100.00
79645;BME280;69117;47.148;18.954;2023-09-19T00:03:09;100111.13;;;21.65;100.00
79645;BME280;69117;47.148;18.954;2023-09-19T00:06:11;100105.16;;;21.82;100.00
79645;BME280;69117;47.148;18.954;2023-09-19T00:09:14;100091.72;;;21.82;100.00
79645;BME280;69117;47.148;18.954;2023-09-19T00:12:16;100088.63;;;21.78;100.00
79645;BME280;69117;47.148;18.954;2023-09-19T00:15:19;100099.63;;;21.77;100.00
79645;BME280;69117;47.148;18.954;2023-09-19T00:18:21;100095.75;;;21.72;100.00
79645;BME280;69117;47.148;18.954;2023-09-19T00:21:24;100102.41;;;21.70;100.00
79645;BME280;69117;47.148;18.954;2023-09-19T00:24:26;100089.00;;;21.63;100.00
79645;BME280;69117;47.148;18.954;2023-09-19T00:27:29;100093.94;;;21.66;100.00
79645;BME280;69117;47.148;18.954;2023-09-19T00:30:31;100087.22;;;21.57;100.00
79645;BME280;69117;47.148;18.954;2023-09-19T00:33:33;100092.22;;;21.54;100.00
79645;BME280;69117;47.148;18.954;2023-09-19T00:36:36;100095.13;;;21.52;100.00
79645;BME280;69117;47.148;18.954;2023-09-19T00:39:40;100094.53;;;21.50;100.00
79645;BME280;69117;47.148;18.954;2023-09-19T00:42:43;100094.53;;;21.50;100.00
79645;BME280;69117;47.148;18.954;2023-09-19T00:45:47;100108.22;;;21.48;100.00
79645;BME280;69117;47.148;18.954;2023-09-19T00:48:50;100091.69;;;21.45;100.00
79645;BME280;69117;47.148;18.954;2023-09-19T00:51:51;100087.91;;;21.53;100.00
79645;BME280;69117;47.148;18.954;2023-09-19T00:54:54;100110.50;;;21.63;100.00
79645;BME280;69117;47.148;18.954;2023-09-19T00:57:56;100111.66;;;21.56;100.00
79645;BME280;69117;47.148;18.954;2023-09-19T01:00:58;100110.38;;;21.58;100.00
79645;BME280;69117;47.148;18.954;2023-09-19T01:04:00;100115.31;;;21.61;100.00
79645;BME280;69117;47.148;18.954;2023-09-19T01:07:02;100100.53;;;21.52;100.00
79645;BME280;69117;47.148;18.954;2023-09-19T01:10:06;100104.75;;;21.41;100.00
79645;BME280;69117;47.148;18.954;2023-09-19T01:13:18;100099.38;;;21.41;100.00
79645;BME280;69117;47.148;18.954;2023-09-19T01:17:06;100087.59;;;21.42;100.00
79645;BME280;69117;47.148;18.954;2023-09-19T01:20:16;100095.66;;;21.42;100.00
79645;BME280;69117;47.148;18.954;2023-09-19T01:23:50;100099.81;;;21.38;100.00
79645;BME280;69117;47.148;18.954;2023-09-19T01:30:14;100094.03;;;21.35;100.00
79645;BME280;69117;47.148;18.954;2023-09-19T01:33:16;100099.84;;;21.32;100.00
79645;BME280;69117;47.148;18.954;2023-09-19T01:36:18;100081.19;;;21.18;100.00
79645;BME280;69117;47.148;18.954;2023-09-19T01:39:20;100095.53;;;21.05;100.00
79645;BME280;69117;47.148;18.954;2023-09-19T01:42:49;100086.38;;;20.88;100.00
79645;BME280;69117;47.148;18.954;2023-09-19T01:52:28;100085.53;;;20.63;100.00
79645;BME280;69117;47.148;18.954;2023-09-19T01:55:37;100077.91;;;20.59;100.00
79645;BME280;69117;47.148;18.954;2023-09-19T01:58:49;100075.66;;;20.56;100.00
79645;BME280;69117;47.148;18.954;2023-09-19T02:01:55;100081.69;;;20.52;100.00
79645;BME280;69117;47.148;18.954;2023-09-19T02:04:58;100081.25;;;20.48;100.00
79645;BME280;69117;47.148;18.954;2023-09-19T02:07:59;100066.53;;;20.26;100.00
79645;BME280;69117;47.148;18.954;2023-09-19T02:11:02;100080.38;;;20.23;100.00
79645;BME280;69117;47.148;18.954;2023-09-19T02:14:03;100082.28;;;20.09;100.00
79645;BME280;69117;47.148;18.954;2023-09-19T02:17:10;100076.72;;;20.10;100.00
79645;BME280;69117;47.148;18.954;2023-09-19T02:20:14;100079.22;;;20.05;100.00
79645;BME280;69117;47.148;18.954;2023-09-19T02:23:16;100080.22;;;20.11;100.00
79645;BME280;69117;47.148;18.954;2023-09-19T02:26:18;100085.81;;;20.09;100.00
79645;BME280;69117;47.148;18.954;2023-09-19T02:29:20;100077.19;;;20.01;100.00
79645;BME280;69117;47.148;18.954;2023-09-19T02:32:24;100074.75;;;19.86;100.00
79645;BME280;69117;47.148;18.954;2023-09-19T02:35:25;100079.72;;;19.82;100.00
79645;BME280;69117;47.148;18.954;2023-09-19T02:38:28;100077.06;;;19.82;100.00
79645;BME280;69117;47.148;18.954;2023-09-19T02:41:30;100083.03;;;19.78;100.00
79645;BME280;69117;47.148;18.954;2023-09-19T02:44:33;100077.69;;;19.71;100.00
79645;BME280;69117;47.148;18.954;2023-09-19T02:47:35;100077.06;;;19.62;100.00
79645;BME280;69117;47.148;18.954;2023-09-19T02:50:37;100089.03;;;19.53;100.00
79645;BME280;69117;47.148;18.954;2023-09-19T02:53:40;100067.84;;;19.52;100.00
79645;BME280;69117;47.148;18.954;2023-09-19T02:56:43;100059.19;;;19.43;100.00
79645;BME280;69117;47.148;18.954;2023-09-19T02:59:45;100063.72;;;19.36;100.00
79645;BME280;69117;47.148;18.954;2023-09-19T03:02:56;100072.81;;;19.35;100.00
79645;BME280;69117;47.148;18.954;2023-09-19T03:05:58;100082.31;;;19.31;100.00
79645;BME280;69117;47.148;18.954;2023-09-19T03:09:00;100072.84;;;19.21;100.00
79645;BME280;69117;47.148;18.954;2023-09-19T03:12:02;100069.13;;;19.16;100.00
79645;BME280;69117;47.148;18.954;2023-09-19T03:15:05;100068.50;;;19.14;100.00
79645;BME280;69117;47.148;18.954;2023-09-19T03:18:09;100066.66;;;19.08;100.00
79645;BME280;69117;47.148;18.954;2023-09-19T03:21:11;100064.38;;;19.05;100.00
79645;BME280;69117;47.148;18.954;2023-09-19T03:24:15;100068.53;;;19.01;100.00
79645;BME280;69117;47.148;18.954;2023-09-19T03:27:16;100060.06;;;18.97;100.00
79645;BME280;69117;47.148;18.954;2023-09-19T03:30:18;100058.22;;;18.97;100.00
79645;BME280;69117;47.148;18.954;2023-09-19T03:33:20;100065.00;;;19.00;100.00
79645;BME280;69117;47.148;18.954;2023-09-19T03:36:21;100068.09;;;18.97;100.00
79645;BME280;69117;47.148;18.954;2023-09-19T03:39:23;100067.09;;;18.91;100.00
79645;BME280;69117;47.148;18.954;2023-09-19T03:42:25;100061.50;;;18.93;100.00
79645;BME280;69117;47.148;18.954;2023-09-19T03:45:27;100043.78;;;18.79;100.00
79645;BME280;69117;47.148;18.954;2023-09-19T03:48:29;100054.72;;;18.84;100.00
79645;BME280;69117;47.148;18.954;2023-09-19T03:51:31;100059.25;;;18.83;100.00
79645;BME280;69117;47.148;18.954;2023-09-19T03:54:33;100056.16;;;18.80;100.00
79645;BME280;69117;47.148;18.954;2023-09-19T03:57:34;100063.16;;;18.87;100.00
79645;BME280;69117;47.148;18.954;2023-09-19T04:00:37;100057.19;;;18.92;100.00
79645;BME280;69117;47.148;18.954;2023-09-19T04:03:40;100062.53;;;18.98;100.00
79645;BME280;69117;47.148;18.954;2023-09-19T04:06:48;100062.31;;;19.13;100.00
79645;BME280;69117;47.148;18.954;2023-09-19T04:09:50;100067.88;;;19.12;100.00
79645;BME280;69117;47.148;18.954;2023-09-19T04:12:55;100073.66;;;19.15;100.00
79645;BME280;69117;47.148;18.954;2023-09-19T04:15:56;100076.34;;;19.15;100.00
79645;BME280;69117;47.148;18.954;2023-09-19T04:18:58;100070.16;;;19.08;100.00
79645;BME280;69117;47.148;18.954;2023-09-19T04:22:02;100079.63;;;19.11;100.00
79645;BME280;69117;47.148;18.954;2023-09-19T04:25:05;100078.16;;;19.15;100.00
79645;BME280;69117;47.148;18.954;2023-09-19T04:28:10;100081.47;;;19.23;100.00
79645;BME280;69117;47.148;18.954;2023-09-19T04:31:12;100100.81;;;19.52;100.00
79645;BME280;69117;47.148;18.954;2023-09-19T04:34:15;100100.81;;;19.65;100.00
79645;BME280;69117;47.148;18.954;2023-09-19T04:37:20;100109.38;;;19.87;100.00
79645;BME280;69117;47.148;18.954;2023-09-19T04:40:23;100111.44;;;19.92;100.00
79645;BME280;69117;47.148;18.954;2023-09-19T04:43:29;100104.44;;;19.91;100.00
79645;BME280;69117;47.148;18.954;2023-09-19T04:46:31;100113.09;;;19.93;100.00
79645;BME280;69117;47.148;18.954;2023-09-19T04:49:33;100118.59;;;20.11;100.00
79645;BME280;69117;47.148;18.954;2023-09-19T04:52:36;100111.34;;;20.12;100.00
79645;BME280;69117;47.148;18.954;2023-09-19T04:55:41;100124.94;;;20.24;100.00
79645;BME280;69117;47.148;18.954;2023-09-19T04:58:43;100124.94;;;20.30;100.00
79645;BME280;69117;47.148;18.954;2023-09-19T05:01:45;100124.66;;;20.39;100.00
79645;BME280;69117;47.148;18.954;2023-09-19T05:04:46;100125.03;;;20.49;100.00
79645;BME280;69117;47.148;18.954;2023-09-19T05:07:49;100138.44;;;20.49;100.00
79645;BME280;69117;47.148;18.954;2023-09-19T05:10:52;100139.00;;;20.64;100.00
79645;BME280;69117;47.148;18.954;2023-09-19T05:13:54;100154.41;;;20.75;100.00
79645;BME280;69117;47.148;18.954;2023-09-19T05:16:56;100154.56;;;20.87;100.00
79645;BME280;69117;47.148;18.954;2023-09-19T05:19:57;100159.78;;;20.82;100.00
79645;BME280;69117;47.148;18.954;2023-09-19T05:23:03;100162.22;;;20.84;100.00
79645;BME280;69117;47.148;18.954;2023-09-19T05:26:07;100158.75;;;20.76;100.00
79645;BME280;69117;47.148;18.954;2023-09-19T05:29:08;100171.00;;;20.66;100.00
79645;BME280;69117;47.148;18.954;2023-09-19T05:32:11;100180.38;;;20.43;100.00
79645;BME280;69117;47.148;18.954;2023-09-19T05:35:13;100191.34;;;20.35;100.00
79645;BME280;69117;47.148;18.954;2023-09-19T05:38:14;100207.09;;;20.25;100.00
79645;BME280;69117;47.148;18.954;2023-09-19T05:41:20;100203.59;;;20.11;100.00
79645;BME280;69117;47.148;18.954;2023-09-19T05:44:22;100198.72;;;19.81;100.00
79645;BME280;69117;47.148;18.954;2023-09-19T05:47:24;100211.09;;;19.76;100.00
79645;BME280;69117;47.148;18.954;2023-09-19T05:50:26;100203.47;;;19.66;100.00
79645;BME280;69117;47.148;18.954;2023-09-19T05:53:28;100199.38;;;19.70;100.00
79645;BME280;69117;47.148;18.954;2023-09-19T05:56:30;100191.91;;;19.59;100.00
79645;BME280;69117;47.148;18.954;2023-09-19T05:59:32;100207.19;;;19.58;100.00
79645;BME280;69117;47.148;18.954;2023-09-19T06:02:38;100200.56;;;19.54;100.00
79645;BME280;69117;47.148;18.954;2023-09-19T06:05:41;100211.28;;;19.54;100.00
79645;BME280;69117;47.148;18.954;2023-09-19T06:08:43;100224.50;;;19.49;100.00
79645;BME280;69117;47.148;18.954;2023-09-19T06:11:47;100224.47;;;19.36;100.00
79645;BME280;69117;47.148;18.954;2023-09-19T06:14:48;100231.47;;;19.30;100.00
79645;BME280;69117;47.148;18.954;2023-09-19T06:17:52;100223.03;;;19.27;100.00
79645;BME280;69117;47.148;18.954;2023-09-19T06:20:56;100239.50;;;19.23;100.00
79645;BME280;69117;47.148;18.954;2023-09-19T06:23:58;100238.69;;;19.23;100.00
79645;BME280;69117;47.148;18.954;2023-09-19T06:27:00;100248.34;;;19.11;100.00
79645;BME280;69117;47.148;18.954;2023-09-19T06:30:03;100248.75;;;19.08;100.00
79645;BME280;69117;47.148;18.954;2023-09-19T06:33:06;100251.00;;;19.04;100.00
79645;BME280;69117;47.148;18.954;2023-09-19T06:36:08;100249.56;;;19.02;100.00
79645;BME280;69117;47.148;18.954;2023-09-19T06:39:10;100261.47;;;18.92;100.00
79645;BME280;69117;47.148;18.954;2023-09-19T06:42:12;100249.69;;;18.73;100.00
79645;BME280;69117;47.148;18.954;2023-09-19T06:45:14;100268.31;;;18.60;100.00
79645;BME280;69117;47.148;18.954;2023-09-19T06:48:20;100271.53;;;18.42;100.00
79645;BME280;69117;47.148;18.954;2023-09-19T06:51:22;100288.75;;;18.33;100.00
79645;BME280;69117;47.148;18.954;2023-09-19T06:54:24;100303.91;;;18.19;100.00
79645;BME280;69117;47.148;18.954;2023-09-19T06:57:25;100302.53;;;18.02;100.00
79645;BME280;69117;47.148;18.954;2023-09-19T07:00:27;100295.25;;;17.68;100.00
79645;BME280;69117;47.148;18.954;2023-09-19T07:03:30;100310.31;;;17.54;100.00
79645;BME280;69117;47.148;18.954;2023-09-19T07:06:31;100335.13;;;17.48;100.00
79645;BME280;69117;47.148;18.954;2023-09-19T07:09:33;100349.88;;;17.44;100.00
79645;BME280;69117;47.148;18.954;2023-09-19T07:12:34;100367.50;;;17.38;100.00
79645;BME280;69117;47.148;18.954;2023-09-19T07:15:38;100373.53;;;17.47;100.00
79645;BME280;69117;47.148;18.954;2023-09-19T07:18:43;100364.75;;;17.31;100.00
79645;BME280;69117;47.148;18.954;2023-09-19T07:21:46;100375.59;;;17.30;100.00
79645;BME280;69117;47.148;18.954;2023-09-19T07:24:48;100384.91;;;17.34;100.00
79645;BME280;69117;47.148;18.954;2023-09-19T07:27:50;100376.28;;;17.17;100.00
79645;BME280;69117;47.148;18.954;2023-09-19T07:30:52;100388.34;;;17.28;100.00
79645;BME280;69117;47.148;18.954;2023-09-19T07:33:54;100387.25;;;17.22;100.00
79645;BME280;69117;47.148;18.954;2023-09-19T07:36:56;100388.28;;;17.43;100.00
79645;BME280;69117;47.148;18.954;2023-09-19T07:39:58;100390.88;;;17.36;100.00
79645;BME280;69117;47.148;18.954;2023-09-19T07:42:59;100394.66;;;17.42;100.00
79645;BME280;69117;47.148;18.954;2023-09-19T07:46:06;100392.97;;;17.55;100.00
79645;BME280;69117;47.148;18.954;2023-09-19T07:49:08;100379.84;;;17.60;100.00
79645;BME280;69117;47.148;18.954;2023-09-19T07:52:12;100394.09;;;17.82;100.00
79645;BME280;69117;47.148;18.954;2023-09-19T07:55:14;100389.91;;;17.95;100.00
79645;BME280;69117;47.148;18.954;2023-09-19T07:58:19;100381.16;;;18.07;100.00
79645;BME280;69117;47.148;18.954;2023-09-19T08:01:20;100390.22;;;18.06;100.00
79645;BME280;69117;47.148;18.954;2023-09-19T08:04:25;100392.94;;;18.13;100.00
79645;BME280;69117;47.148;18.954;2023-09-19T08:07:28;100383.44;;;18.11;100.00
79645;BME280;69117;47.148;18.954;2023-09-19T08:10:30;100394.56;;;18.14;100.00
79645;BME280;69117;47.148;18.954;2023-09-19T08:13:40;100402.69;;;18.27;100.00
79645;BME280;69117;47.148;18.954;2023-09-19T08:16:45;100413.28;;;18.14;100.00
79645;BME280;69117;47.148;18.954;2023-09-19T08:19:47;100427.31;;;18.16;100.00
79645;BME280;69117;47.148;18.954;2023-09-19T08:22:52;100440.63;;;18.10;100.00
79645;BME280;69117;47.148;18.954;2023-09-19T08:25:56;100439.16;;;18.07;100.00
79645;BME280;69117;47.148;18.954;2023-09-19T08:28:59;100452.31;;;18.08;100.00
79645;BME280;69117;47.148;18.954;2023-09-19T08:32:07;100449.03;;;18.06;100.00
79645;BME280;69117;47.148;18.954;2023-09-19T08:35:11;100448.50;;;17.96;100.00
79645;BME280;69117;47.148;18.954;2023-09-19T08:38:13;100454.75;;;18.03;100.00
79645;BME280;69117;47.148;18.954;2023-09-19T08:41:17;100437.25;;;18.22;100.00
79645;BME280;69117;47.148;18.954;2023-09-19T08:44:18;100435.75;;;18.41;100.00
79645;BME280;69117;47.148;18.954;2023-09-19T08:47:30;100432.75;;;18.58;100.00
79645;BME280;69117;47.148;18.954;2023-09-19T08:50:43;100424.34;;;18.82;100.00
79645;BME280;69117;47.148;18.954;2023-09-19T08:54:07;100433.78;;;18.78;100.00
79645;BME280;69117;47.148;18.954;2023-09-19T08:57:10;100429.31;;;18.85;100.00
79645;BME280;69117;47.148;18.954;2023-09-19T09:00:13;100424.13;;;18.84;100.00
79645;BME280;69117;47.148;18.954;2023-09-19T09:03:16;100423.19;;;18.98;100.00
79645;BME280;69117;47.148;18.954;2023-09-19T09:06:22;100427.00;;;19.23;100.00
79645;BME280;69117;47.148;18.954;2023-09-19T09:09:24;100416.66;;;19.62;100.00
79645;BME280;69117;47.148;18.954;2023-09-19T09:12:26;100417.09;;;19.65;100.00
79645;BME280;69117;47.148;18.954;2023-09-19T09:15:29;100409.41;;;19.49;100.00
79645;BME280;69117;47.148;18.954;2023-09-19T09:18:32;100408.53;;;19.35;100.00
79645;BME280;69117;47.148;18.954;2023-09-19T09:21:33;100429.78;;;19.43;100.00
79645;BME280;69117;47.148;18.954;2023-09-19T09:24:54;100433.91;;;19.46;100.00
79645;BME280;69117;47.148;18.954;2023-09-19T09:28:02;100421.78;;;19.63;100.00
79645;BME280;69117;47.148;18.954;2023-09-19T09:31:04;100428.06;;;19.77;100.00
79645;BME280;69117;47.148;18.954;2023-09-19T09:34:11;100421.06;;;20.03;100.00
79645;BME280;69117;47.148;18.954;2023-09-19T09:37:18;100419.66;;;20.40;100.00
79645;BME280;69117;47.148;18.954;2023-09-19T09:40:24;100410.56;;;20.34;100.00
79645;BME280;69117;47.148;18.954;2023-09-19T09:43:39;100416.75;;;20.35;100.00
79645;BME280;69117;47.148;18.954;2023-09-19T09:46:43;100432.06;;;20.28;100.00
79645;BME280;69117;47.148;18.954;2023-09-19T09:50:00;100450.00;;;20.27;100.00
79645;BME280;69117;47.148;18.954;2023-09-19T09:53:29;100446.69;;;20.39;100.00
79645;BME280;69117;47.148;18.954;2023-09-19T09:56:33;100452.72;;;20.54;100.00
79645;BME280;69117;47.148;18.954;2023-09-19T10:02:49;100446.47;;;21.00;100.00
79645;BME280;69117;47.148;18.954;2023-09-19T10:05:53;100443.34;;;21.03;100.00
79645;BME280;69117;47.148;18.954;2023-09-19T10:09:09;100435.53;;;21.53;100.00
79645;BME280;69117;47.148;18.954;2023-09-19T10:12:12;100439.59;;;21.69;100.00
79645;BME280;69117;47.148;18.954;2023-09-19T10:15:17;100428.31;;;22.42;100.00
79645;BME280;69117;47.148;18.954;2023-09-19T10:18:26;100425.84;;;22.84;100.00
79645;BME280;69117;47.148;18.954;2023-09-19T10:21:29;100431.25;;;22.40;100.00
79645;BME280;69117;47.148;18.954;2023-09-19T10:24:33;100433.44;;;21.93;100.00
79645;BME280;69117;47.148;18.954;2023-09-19T10:27:50;100449.94;;;21.65;100.00
79645;BME280;69117;47.148;18.954;2023-09-19T10:30:53;100445.31;;;21.41;100.00
79645;BME280;69117;47.148;18.954;2023-09-19T10:33:55;100446.47;;;21.58;100.00
79645;BME280;69117;47.148;18.954;2023-09-19T10:36:59;100459.47;;;21.68;100.00
79645;BME280;69117;47.148;18.954;2023-09-19T10:40:08;100454.69;;;22.02;100.00
79645;BME280;69117;47.148;18.954;2023-09-19T10:43:16;100449.19;;;22.72;100.00
79645;BME280;69117;47.148;18.954;2023-09-19T10:46:19;100452.03;;;23.20;100.00
79645;BME280;69117;47.148;18.954;2023-09-19T10:49:21;100459.75;;;24.26;100.00
79645;BME280;69117;47.148;18.954;2023-09-19T10:52:25;100463.53;;;24.25;100.00
79645;BME280;69117;47.148;18.954;2023-09-19T10:55:28;100451.13;;;24.05;100.00
79645;BME280;69117;47.148;18.954;2023-09-19T10:58:32;100447.34;;;24.95;100.00
79645;BME280;69117;47.148;18.954;2023-09-19T11:01:52;100452.78;;;24.48;100.00
79645;BME280;69117;47.148;18.954;2023-09-19T11:05:11;100462.06;;;23.13;100.00
79645;BME280;69117;47.148;18.954;2023-09-19T11:08:14;100458.59;;;23.61;100.00
79645;BME280;69117;47.148;18.954;2023-09-19T11:11:39;100454.41;;;24.96;100.00
79645;BME280;69117;47.148;18.954;2023-09-19T11:14:41;100457.44;;;25.23;100.00
79645;BME280;69117;47.148;18.954;2023-09-19T11:17:43;100460.88;;;25.59;100.00
79645;BME280;69117;47.148;18.954;2023-09-19T11:24:31;100459.63;;;26.07;100.00
79645;BME280;69117;47.148;18.954;2023-09-19T11:27:37;100450.19;;;25.24;100.00
79645;BME280;69117;47.148;18.954;2023-09-19T11:31:42;100451.44;;;26.69;100.00
79645;BME280;69117;47.148;18.954;2023-09-19T11:34:48;100461.75;;;25.48;100.00
79645;BME280;69117;47.148;18.954;2023-09-19T11:47:27;100441.88;;;27.45;89.34
79645;BME280;69117;47.148;18.954;2023-09-19T11:50:31;100440.03;;;27.77;84.03
79645;BME280;69117;47.148;18.954;2023-09-19T11:53:35;100451.00;;;27.60;84.90
79645;BME280;69117;47.148;18.954;2023-09-19T11:56:39;100438.66;;;29.09;78.25
79645;BME280;69117;47.148;18.954;2023-09-19T11:59:42;100446.75;;;29.77;70.64
79645;BME280;69117;47.148;18.954;2023-09-19T12:02:47;100445.78;;;27.32;80.89
79645;BME280;69117;47.148;18.954;2023-09-19T12:05:53;100448.50;;;27.32;82.10
79645;BME280;69117;47.148;18.954;2023-09-19T12:08:55;100445.84;;;27.86;79.42
79645;BME280;69117;47.148;18.954;2023-09-19T12:11:58;100447.31;;;27.45;84.18
79645;BME280;69117;47.148;18.954;2023-09-19T12:15:00;100439.69;;;25.96;92.19
79645;BME280;69117;47.148;18.954;2023-09-19T12:18:05;100438.66;;;27.26;80.71
79645;BME280;69117;47.148;18.954;2023-09-19T12:21:07;100440.25;;;27.98;80.21
79645;BME280;69117;47.148;18.954;2023-09-19T12:24:13;100445.41;;;27.94;76.24
79645;BME280;69117;47.148;18.954;2023-09-19T12:27:15;100450.16;;;27.33;80.39
79645;BME280;69117;47.148;18.954;2023-09-19T12:30:17;100441.94;;;27.77;77.94
79645;BME280;69117;47.148;18.954;2023-09-19T12:33:28;100448.09;;;27.23;76.51
79645;BME280;69117;47.148;18.954;2023-09-19T12:36:30;100439.75;;;28.33;70.68
79645;BME280;69117;47.148;18.954;2023-09-19T12:39:32;100441.03;;;27.66;75.84
79645;BME280;69117;47.148;18.954;2023-09-19T12:42:33;100434.50;;;27.18;77.66
79645;BME280;69117;47.148;18.954;2023-09-19T12:45:37;100438.72;;;28.07;71.28
79645;BME280;69117;47.148;18.954;2023-09-19T12:48:40;100422.59;;;28.27;69.02
79645;BME280;69117;47.148;18.954;2023-09-19T12:51:46;100427.63;;;28.88;69.76
79645;BME280;69117;47.148;18.954;2023-09-19T12:54:49;100428.25;;;28.21;71.16
79645;BME280;69117;47.148;18.954;2023-09-19T13:00:57;100431.19;;;26.94;75.35
79645;BME280;69117;47.148;18.954;2023-09-19T13:04:21;100430.94;;;25.66;81.66
79645;BME280;69117;47.148;18.954;2023-09-19T13:07:44;100424.84;;;26.66;74.95
79645;BME280;69117;47.148;18.954;2023-09-19T13:11:11;100431.03;;;27.45;71.83
79645;BME280;69117;47.148;18.954;2023-09-19T13:17:24;100431.09;;;27.28;69.03
79645;BME280;69117;47.148;18.954;2023-09-19T13:20:26;100430.53;;;27.53;72.49
79645;BME280;69117;47.148;18.954;2023-09-19T13:23:33;100427.22;;;27.46;72.15
79645;BME280;69117;47.148;18.954;2023-09-19T13:26:35;100421.53;;;27.47;72.41
79645;BME280;69117;47.148;18.954;2023-09-19T13:29:37;100432.09;;;27.22;72.31
79645;BME280;69117;47.148;18.954;2023-09-19T13:32:38;100443.16;;;26.42;71.17
79645;BME280;69117;47.148;18.954;2023-09-19T13:35:42;100438.50;;;26.55;72.85
79645;BME280;69117;47.148;18.954;2023-09-19T13:38:43;100439.13;;;26.62;70.86
79645;BME280;69117;47.148;18.954;2023-09-19T13:41:48;100435.59;;;26.27;72.90
79645;BME280;69117;47.148;18.954;2023-09-19T13:44:50;100439.94;;;26.45;73.24
79645;BME280;69117;47.148;18.954;2023-09-19T13:47:52;100444.03;;;25.97;74.09
79645;BME280;69117;47.148;18.954;2023-09-19T13:50:56;100449.31;;;26.21;73.70
79645;BME280;69117;47.148;18.954;2023-09-19T13:53:58;100453.16;;;26.42;73.29
79645;BME280;69117;47.148;18.954;2023-09-19T13:57:00;100458.25;;;26.21;72.62
79645;BME280;69117;47.148;18.954;2023-09-19T14:00:02;100460.06;;;25.58;74.62
79645;BME280;69117;47.148;18.954;2023-09-19T14:03:06;100464.03;;;25.68;74.83
79645;BME280;69117;47.148;18.954;2023-09-19T14:06:08;100458.50;;;25.22;75.31
79645;BME280;69117;47.148;18.954;2023-09-19T14:09:10;100459.19;;;25.29;76.18
79645;BME280;69117;47.148;18.954;2023-09-19T14:12:13;100449.75;;;26.01;75.97
79645;BME280;69117;47.148;18.954;2023-09-19T14:15:15;100449.28;;;25.47;75.86
79645;BME280;69117;47.148;18.954;2023-09-19T14:18:17;100441.41;;;25.45;79.67
79645;BME280;69117;47.148;18.954;2023-09-19T14:21:20;100446.53;;;25.18;79.28
79645;BME280;69117;47.148;18.954;2023-09-19T14:24:22;100444.28;;;25.27;80.70
79645;BME280;69117;47.148;18.954;2023-09-19T14:27:24;100446.38;;;25.36;77.50
79645;BME280;69117;47.148;18.954;2023-09-19T14:30:26;100449.22;;;25.58;77.88
79645;BME280;69117;47.148;18.954;2023-09-19T14:33:29;100447.69;;;25.22;79.33
79645;BME280;69117;47.148;18.954;2023-09-19T14:36:31;100439.94;;;25.14;84.14
79645;BME280;69117;47.148;18.954;2023-09-19T14:39:33;100446.06;;;25.09;79.75
79645;BME280;69117;47.148;18.954;2023-09-19T14:42:38;100441.47;;;25.10;80.82
79645;BME280;69117;47.148;18.954;2023-09-19T14:45:40;100438.06;;;25.03;80.39
79645;BME280;69117;47.148;18.954;2023-09-19T14:48:42;100445.81;;;25.11;83.37
79645;BME280;69117;47.148;18.954;2023-09-19T14:51:44;100444.16;;;25.10;84.37
79645;BME280;69117;47.148;18.954;2023-09-19T14:54:46;100446.53;;;24.95;86.37
79645;BME280;69117;47.148;18.954;2023-09-19T14:57:50;100452.44;;;25.15;88.07
79645;BME280;69117;47.148;18.954;2023-09-19T15:00:53;100453.91;;;25.23;85.83
79645;BME280;69117;47.148;18.954;2023-09-19T15:03:55;100449.47;;;25.05;88.44
79645;BME280;69117;47.148;18.954;2023-09-19T15:06:57;100472.28;;;24.74;88.08
79645;BME280;69117;47.148;18.954;2023-09-19T15:09:59;100465.25;;;24.61;86.97
79645;BME280;69117;47.148;18.954;2023-09-19T15:13:01;100459.22;;;24.47;87.04
79645;BME280;69117;47.148;18.954;2023-09-19T15:16:07;100462.06;;;24.10;87.62
79645;BME280;69117;47.148;18.954;2023-09-19T15:19:11;100464.66;;;23.75;92.47
79645;BME280;69117;47.148;18.954;2023-09-19T15:22:13;100477.72;;;23.41;96.35
79645;BME280;69117;47.148;18.954;2023-09-19T15:25:15;100474.22;;;23.22;99.52
79645;BME280;69117;47.148;18.954;2023-09-19T15:28:17;100473.75;;;23.07;99.68
79645;BME280;69117;47.148;18.954;2023-09-19T15:31:19;100460.84;;;22.91;98.78
79645;BME280;69117;47.148;18.954;2023-09-19T15:34:21;100455.56;;;22.77;100.00
79645;BME280;69117;47.148;18.954;2023-09-19T15:37:22;100457.88;;;22.74;100.00
79645;BME280;69117;47.148;18.954;2023-09-19T15:40:26;100455.91;;;22.62;100.00
79645;BME280;69117;47.148;18.954;2023-09-19T15:43:30;100457.03;;;22.55;100.00
79645;BME280;69117;47.148;18.954;2023-09-19T15:46:35;100477.53;;;22.56;100.00
79645;BME280;69117;47.148;18.954;2023-09-19T15:49:37;100476.81;;;22.67;100.00
79645;BME280;69117;47.148;18.954;2023-09-19T15:52:39;100475.13;;;22.91;100.00
79645;BME280;69117;47.148;18.954;2023-09-19T15:55:41;100483.72;;;23.06;100.00
79645;BME280;69117;47.148;18.954;2023-09-19T15:58:44;100484.47;;;22.89;100.00
79645;BME280;69117;47.148;18.954;2023-09-19T16:01:46;100481.06;;;22.75;99.53
79645;BME280;69117;47.148;18.954;2023-09-19T16:04:48;100479.06;;;22.70;99.92
79645;BME280;69117;47.148;18.954;2023-09-19T16:07:49;100487.84;;;22.59;100.00
79645;BME280;69117;47.148;18.954;2023-09-19T16:10:51;100484.41;;;22.52;100.00
79645;BME280;69117;47.148;18.954;2023-09-19T16:13:53;100480.09;;;22.44;100.00